sensor_id;sensor_type;location;lat;lon;timestamp;pressure;altitude;pressure_sealevel;temperature;humidity
60015;BME280;45867;52.480;6.056;2022-11-15T00:00:19;100891.13;;;5.46;100.00
60015;BME280;45867;52.480;6.056;2022-11-15T00:02:45;100882.34;;;5.40;100.00
60015;BME280;45867;52.480;6.056;2022-11-15T00:05:10;100896.13;;;5.47;100.00
60015;BME280;45867;52.480;6.056;2022-11-15T00:07:37;100886.88;;;5.45;100.00
60015;BME280;45867;52.480;6.056;2022-11-15T00:10:04;100881.63;;;5.45;100.00
60015;BME280;45867;52.480;6.056;2022-11-15T00:12:34;100881.41;;;5.46;100.00
60015;BME280;45867;52.480;6.056;2022-11-15T00:15:01;100869.19;;;5.40;100.00
60015;BME280;45867;52.480;6.056;2022-11-15T00:17:27;100872.38;;;5.42;100.00
60015;BME280;45867;52.480;6.056;2022-11-15T00:19:55;100878.88;;;5.51;100.00
60015;BME280;45867;52.480;6.056;2022-11-15T00:22:21;100869.38;;;5.50;100.00
60015;BME280;45867;52.480;6.056;2022-11-15T00:24:47;100866.06;;;5.55;100.00
60015;BME280;45867;52.480;6.056;2022-11-15T00:27:13;100869.75;;;5.54;100.00
60015;BME280;45867;52.480;6.056;2022-11-15T00:29:39;100867.34;;;5.52;100.00
60015;BME280;45867;52.480;6.056;2022-11-15T00:32:11;100855.47;;;5.50;100.00
60015;BME280;45867;52.480;6.056;2022-11-15T00:34:37;100865.28;;;5.54;100.00
60015;BME280;45867;52.480;6.056;2022-11-15T00:37:03;100869.81;;;5.59;100.00
60015;BME280;45867;52.480;6.056;2022-11-15T00:39:29;100873.94;;;5.67;100.00
60015;BME280;45867;52.480;6.056;2022-11-15T00:41:54;100861.38;;;5.69;100.00
60015;BME280;45867;52.480;6.056;2022-11-15T00:44:20;100849.47;;;5.66;100.00
60015;BME280;45867;52.480;6.056;2022-11-15T00:46:46;100855.06;;;5.70;100.00
60015;BME280;45867;52.480;6.056;2022-11-15T00:49:11;100851.63;;;5.69;100.00
60015;BME280;45867;52.480;6.056;2022-11-15T00:51:37;100856.09;;;5.69;100.00
60015;BME280;45867;52.480;6.056;2022-11-15T00:54:03;100862.25;;;5.74;100.00
60015;BME280;45867;52.480;6.056;2022-11-15T00:56:29;100876.44;;;5.73;100.00
60015;BME280;45867;52.480;6.056;2022-11-15T00:58:54;100887.28;;;5.77;100.00
60015;BME280;45867;52.480;6.056;2022-11-15T01:01:20;100866.25;;;5.77;100.00
60015;BME280;45867;52.480;6.056;2022-11-15T01:03:46;100833.91;;;5.76;100.00
60015;BME280;45867;52.480;6.056;2022-11-15T01:06:11;100839.75;;;5.78;100.00
60015;BME280;45867;52.480;6.056;2022-11-15T01:08:40;100841.09;;;5.81;100.00
60015;BME280;45867;52.480;6.056;2022-11-15T01:11:08;100847.69;;;5.84;100.00
60015;BME280;45867;52.480;6.056;2022-11-15T01:13:35;100839.81;;;5.84;100.00
60015;BME280;45867;52.480;6.056;2022-11-15T01:16:15;100835.13;;;5.86;100.00
60015;BME280;45867;52.480;6.056;2022-11-15T01:18:43;100842.00;;;5.87;100.00
60015;BME280;45867;52.480;6.056;2022-11-15T01:21:11;100835.69;;;5.88;100.00
60015;BME280;45867;52.480;6.056;2022-11-15T01:23:38;100842.78;;;5.87;100.00
60015;BME280;45867;52.480;6.056;2022-11-15T01:26:05;100841.75;;;5.88;100.00
60015;BME280;45867;52.480;6.056;2022-11-15T01:28:33;100840.63;;;5.96;100.00
60015;BME280;45867;52.480;6.056;2022-11-15T01:31:05;100843.25;;;5.96;100.00
60015;BME280;45867;52.480;6.056;2022-11-15T01:33:36;100829.97;;;5.91;100.00
60015;BME280;45867;52.480;6.056;2022-11-15T01:36:06;100840.72;;;6.01;100.00
60015;BME280;45867;52.480;6.056;2022-11-15T01:38:33;100824.69;;;6.03;100.00
60015;BME280;45867;52.480;6.056;2022-11-15T01:40:59;100821.25;;;6.02;100.00
60015;BME280;45867;52.480;6.056;2022-11-15T01:43:30;100813.84;;;5.99;100.00
60015;BME280;45867;52.480;6.056;2022-11-15T01:48:46;100820.66;;;6.12;100.00
60015;BME280;45867;52.480;6.056;2022-11-15T01:51:17;100819.94;;;6.16;100.00
60015;BME280;45867;52.480;6.056;2022-11-15T01:53:46;100815.50;;;6.17;100.00
60015;BME280;45867;52.480;6.056;2022-11-15T01:56:21;100815.56;;;6.22;100.00
60015;BME280;45867;52.480;6.056;2022-11-15T01:58:49;100814.75;;;6.21;100.00
60015;BME280;45867;52.480;6.056;2022-11-15T02:01:16;100807.59;;;6.17;100.00
60015;BME280;45867;52.480;6.056;2022-11-15T02:03:48;100818.75;;;6.24;100.00
60015;BME280;45867;52.480;6.056;2022-11-15T02:06:15;100806.63;;;6.23;100.00
60015;BME280;45867;52.480;6.056;2022-11-15T02:08:44;100811.75;;;6.30;100.00
60015;BME280;45867;52.480;6.056;2022-11-15T02:11:09;100812.41;;;6.37;100.00
60015;BME280;45867;52.480;6.056;2022-11-15T02:13:36;100815.44;;;6.45;100.00
60015;BME280;45867;52.480;6.056;2022-11-15T02:21:43;100812.16;;;6.55;100.00
60015;BME280;45867;52.480;6.056;2022-11-15T02:32:19;100791.97;;;6.61;100.00
60015;BME280;45867;52.480;6.056;2022-11-15T02:35:07;100785.94;;;6.60;100.00
60015;BME280;45867;52.480;6.056;2022-11-15T02:37:44;100790.22;;;6.66;100.00
60015;BME280;45867;52.480;6.056;2022-11-15T02:40:33;100792.28;;;6.64;100.00
60015;BME280;45867;52.480;6.056;2022-11-15T02:43:10;100784.97;;;6.66;100.00
60015;BME280;45867;52.480;6.056;2022-11-15T02:48:45;100784.47;;;6.70;100.00
60015;BME280;45867;52.480;6.056;2022-11-15T02:51:11;100782.06;;;6.68;100.00
60015;BME280;45867;52.480;6.056;2022-11-15T02:53:37;100777.38;;;6.70;100.00
60015;BME280;45867;52.480;6.056;2022-11-15T02:56:03;100770.03;;;6.72;100.00
60015;BME280;45867;52.480;6.056;2022-11-15T03:06:28;100751.34;;;6.74;100.00
60015;BME280;45867;52.480;6.056;2022-11-15T03:11:49;100753.50;;;6.77;100.00
60015;BME280;45867;52.480;6.056;2022-11-15T03:14:22;100748.28;;;6.82;100.00
60015;BME280;45867;52.480;6.056;2022-11-15T03:16:51;100746.72;;;6.81;100.00
60015;BME280;45867;52.480;6.056;2022-11-15T03:19:42;100746.47;;;6.82;100.00
60015;BME280;45867;52.480;6.056;2022-11-15T03:22:12;100749.13;;;6.82;100.00
60015;BME280;45867;52.480;6.056;2022-11-15T03:24:38;100743.97;;;6.93;100.00
60015;BME280;45867;52.480;6.056;2022-11-15T03:27:06;100739.97;;;6.90;100.00
60015;BME280;45867;52.480;6.056;2022-11-15T03:29:37;100742.38;;;6.92;100.00
60015;BME280;45867;52.480;6.056;2022-11-15T03:32:12;100738.16;;;6.91;100.00
60015;BME280;45867;52.480;6.056;2022-11-15T03:34:43;100735.59;;;6.96;100.00
60015;BME280;45867;52.480;6.056;2022-11-15T03:37:13;100728.47;;;6.96;100.00
60015;BME280;45867;52.480;6.056;2022-11-15T03:39:40;100726.88;;;6.95;100.00
60015;BME280;45867;52.480;6.056;2022-11-15T03:42:21;100719.78;;;6.96;100.00
60015;BME280;45867;52.480;6.056;2022-11-15T03:45:05;100731.41;;;7.00;100.00
60015;BME280;45867;52.480;6.056;2022-11-15T03:47:41;100733.31;;;7.04;100.00
60015;BME280;45867;52.480;6.056;2022-11-15T03:50:16;100733.63;;;7.08;100.00
60015;BME280;45867;52.480;6.056;2022-11-15T03:52:44;100743.13;;;7.09;100.00
60015;BME280;45867;52.480;6.056;2022-11-15T03:55:15;100730.25;;;7.13;100.00
60015;BME280;45867;52.480;6.056;2022-11-15T03:57:57;100738.69;;;7.15;100.00
60015;BME280;45867;52.480;6.056;2022-11-15T04:00:23;100724.50;;;7.16;100.00
60015;BME280;45867;52.480;6.056;2022-11-15T04:02:49;100726.41;;;7.20;100.00
60015;BME280;45867;52.480;6.056;2022-11-15T04:05:14;100734.13;;;7.27;100.00
60015;BME280;45867;52.480;6.056;2022-11-15T04:07:41;100738.09;;;7.29;100.00
60015;BME280;45867;52.480;6.056;2022-11-15T04:10:07;100732.28;;;7.27;100.00
60015;BME280;45867;52.480;6.056;2022-11-15T04:12:39;100732.41;;;7.38;100.00
60015;BME280;45867;52.480;6.056;2022-11-15T04:15:10;100736.38;;;7.40;100.00
60015;BME280;45867;52.480;6.056;2022-11-15T04:20:18;100733.00;;;7.45;100.00
60015;BME280;45867;52.480;6.056;2022-11-15T04:23:10;100736.50;;;7.50;100.00
60015;BME280;45867;52.480;6.056;2022-11-15T04:25:55;100735.75;;;7.55;100.00
60015;BME280;45867;52.480;6.056;2022-11-15T04:28:21;100733.91;;;7.55;100.00
60015;BME280;45867;52.480;6.056;2022-11-15T04:30:47;100733.22;;;7.65;100.00
60015;BME280;45867;52.480;6.056;2022-11-15T04:33:12;100731.94;;;7.68;100.00
60015;BME280;45867;52.480;6.056;2022-11-15T04:35:38;100733.50;;;7.69;100.00
60015;BME280;45867;52.480;6.056;2022-11-15T04:38:05;100735.41;;;7.73;100.00
60015;BME280;45867;52.480;6.056;2022-11-15T04:40:30;100739.38;;;7.76;100.00
60015;BME280;45867;52.480;6.056;2022-11-15T04:42:57;100729.91;;;7.75;100.00
60015;BME280;45867;52.480;6.056;2022-11-15T04:45:22;100724.63;;;7.75;100.00
60015;BME280;45867;52.480;6.056;2022-11-15T04:47:47;100730.75;;;7.81;100.00
60015;BME280;45867;52.480;6.056;2022-11-15T04:50:14;100727.28;;;7.80;100.00
60015;BME280;45867;52.480;6.056;2022-11-15T04:52:41;100730.97;;;7.79;100.00
60015;BME280;45867;52.480;6.056;2022-11-15T04:55:09;100735.25;;;7.85;100.00
60015;BME280;45867;52.480;6.056;2022-11-15T04:58:00;100741.88;;;7.88;100.00
60015;BME280;45867;52.480;6.056;2022-11-15T05:00:27;100731.63;;;7.91;100.00
60015;BME280;45867;52.480;6.056;2022-11-15T05:02:52;100723.72;;;7.91;100.00
60015;BME280;45867;52.480;6.056;2022-11-15T05:05:37;100722.16;;;7.95;100.00
60015;BME280;45867;52.480;6.056;2022-11-15T05:08:03;100730.13;;;8.00;100.00
60015;BME280;45867;52.480;6.056;2022-11-15T05:10:28;100718.22;;;7.98;100.00
60015;BME280;45867;52.480;6.056;2022-11-15T05:12:54;100708.91;;;7.90;100.00
60015;BME280;45867;52.480;6.056;2022-11-15T05:15:19;100718.47;;;7.96;100.00
60015;BME280;45867;52.480;6.056;2022-11-15T05:17:45;100712.94;;;7.98;100.00
60015;BME280;45867;52.480;6.056;2022-11-15T05:20:11;100721.69;;;8.04;100.00
60015;BME280;45867;52.480;6.056;2022-11-15T05:22:36;100714.06;;;8.07;100.00
60015;BME280;45867;52.480;6.056;2022-11-15T05:25:02;100714.66;;;8.14;100.00
60015;BME280;45867;52.480;6.056;2022-11-15T05:27:27;100706.47;;;8.11;100.00
60015;BME280;45867;52.480;6.056;2022-11-15T05:29:52;100711.47;;;8.12;100.00
60015;BME280;45867;52.480;6.056;2022-11-15T05:32:18;100712.53;;;8.11;100.00
60015;BME280;45867;52.480;6.056;2022-11-15T05:34:43;100705.06;;;8.03;100.00
60015;BME280;45867;52.480;6.056;2022-11-15T05:37:09;100713.63;;;8.20;100.00
60015;BME280;45867;52.480;6.056;2022-11-15T05:39:35;100715.50;;;8.20;100.00
60015;BME280;45867;52.480;6.056;2022-11-15T05:42:12;100721.31;;;8.22;100.00
60015;BME280;45867;52.480;6.056;2022-11-15T05:44:40;100733.00;;;8.31;100.00
60015;BME280;45867;52.480;6.056;2022-11-15T05:47:09;100730.13;;;8.33;100.00
60015;BME280;45867;52.480;6.056;2022-11-15T05:49:41;100733.00;;;8.31;100.00
60015;BME280;45867;52.480;6.056;2022-11-15T05:52:12;100727.47;;;8.33;100.00
60015;BME280;45867;52.480;6.056;2022-11-15T05:54:39;100740.25;;;8.41;100.00
60015;BME280;45867;52.480;6.056;2022-11-15T05:57:12;100737.88;;;8.44;100.00
60015;BME280;45867;52.480;6.056;2022-11-15T05:59:37;100730.22;;;8.43;100.00
60015;BME280;45867;52.480;6.056;2022-11-15T06:02:03;100734.97;;;8.41;100.00
60015;BME280;45867;52.480;6.056;2022-11-15T06:04:29;100733.91;;;8.42;100.00
60015;BME280;45867;52.480;6.056;2022-11-15T06:06:54;100732.59;;;8.44;100.00
60015;BME280;45867;52.480;6.056;2022-11-15T06:09:22;100737.91;;;8.50;100.00
60015;BME280;45867;52.480;6.056;2022-11-15T06:11:48;100744.53;;;8.52;100.00
60015;BME280;45867;52.480;6.056;2022-11-15T06:14:13;100742.19;;;8.56;100.00
60015;BME280;45867;52.480;6.056;2022-11-15T06:16:39;100739.53;;;8.56;100.00
60015;BME280;45867;52.480;6.056;2022-11-15T06:19:06;100740.63;;;8.60;100.00
60015;BME280;45867;52.480;6.056;2022-11-15T06:21:31;100733.47;;;8.55;100.00
60015;BME280;45867;52.480;6.056;2022-11-15T06:23:57;100736.91;;;8.56;100.00
60015;BME280;45867;52.480;6.056;2022-11-15T06:26:22;100744.81;;;8.56;100.00
60015;BME280;45867;52.480;6.056;2022-11-15T06:28:47;100754.13;;;8.63;100.00
60015;BME280;45867;52.480;6.056;2022-11-15T06:31:13;100753.06;;;8.64;100.00
60015;BME280;45867;52.480;6.056;2022-11-15T06:33:41;100751.75;;;8.67;100.00
60015;BME280;45867;52.480;6.056;2022-11-15T06:36:11;100756.75;;;8.63;100.00
60015;BME280;45867;52.480;6.056;2022-11-15T06:38:39;100764.44;;;8.65;100.00
60015;BME280;45867;52.480;6.056;2022-11-15T06:41:09;100762.88;;;8.69;100.00
60015;BME280;45867;52.480;6.056;2022-11-15T06:43:35;100770.31;;;8.77;100.00
60015;BME280;45867;52.480;6.056;2022-11-15T06:46:02;100774.84;;;8.82;100.00
60015;BME280;45867;52.480;6.056;2022-11-15T06:48:29;100772.47;;;8.85;100.00
60015;BME280;45867;52.480;6.056;2022-11-15T06:50:56;100773.75;;;8.78;100.00
60015;BME280;45867;52.480;6.056;2022-11-15T06:53:23;100761.84;;;8.75;100.00
60015;BME280;45867;52.480;6.056;2022-11-15T06:55:48;100763.44;;;8.76;100.00
60015;BME280;45867;52.480;6.056;2022-11-15T06:58:14;100754.22;;;8.79;100.00
60015;BME280;45867;52.480;6.056;2022-11-15T07:00:39;100769.56;;;8.82;100.00
60015;BME280;45867;52.480;6.056;2022-11-15T07:03:05;100769.56;;;8.82;100.00
60015;BME280;45867;52.480;6.056;2022-11-15T07:05:31;100773.81;;;8.88;100.00
60015;BME280;45867;52.480;6.056;2022-11-15T07:07:57;100769.88;;;8.91;100.00
60015;BME280;45867;52.480;6.056;2022-11-15T07:10:24;100777.53;;;8.87;100.00
60015;BME280;45867;52.480;6.056;2022-11-15T07:12:54;100767.94;;;8.81;100.00
60015;BME280;45867;52.480;6.056;2022-11-15T07:15:23;100768.78;;;8.81;100.00
60015;BME280;45867;52.480;6.056;2022-11-15T07:17:49;100771.41;;;8.86;100.00
60015;BME280;45867;52.480;6.056;2022-11-15T07:20:15;100778.81;;;8.84;100.00
60015;BME280;45867;52.480;6.056;2022-11-15T07:22:41;100781.97;;;8.86;100.00
60015;BME280;45867;52.480;6.056;2022-11-15T07:25:07;100774.06;;;8.86;100.00
60015;BME280;45867;52.480;6.056;2022-11-15T07:27:32;100779.91;;;8.88;100.00
60015;BME280;45867;52.480;6.056;2022-11-15T07:29:58;100788.66;;;8.94;100.00
60015;BME280;45867;52.480;6.056;2022-11-15T07:32:24;100791.28;;;8.94;100.00
60015;BME280;45867;52.480;6.056;2022-11-15T07:34:50;100792.06;;;8.95;100.00
60015;BME280;45867;52.480;6.056;2022-11-15T07:37:15;100791.28;;;8.94;100.00
60015;BME280;45867;52.480;6.056;2022-11-15T07:39:42;100793.72;;;9.01;100.00
60015;BME280;45867;52.480;6.056;2022-11-15T07:42:08;100798.53;;;9.09;100.00
60015;BME280;45867;52.480;6.056;2022-11-15T07:44:52;100788.22;;;9.13;100.00
60015;BME280;45867;52.480;6.056;2022-11-15T07:47:20;100793.53;;;9.18;100.00
60015;BME280;45867;52.480;6.056;2022-11-15T07:49:46;100770.28;;;9.20;100.00
60015;BME280;45867;52.480;6.056;2022-11-15T07:52:12;100776.13;;;9.27;100.00
60015;BME280;45867;52.480;6.056;2022-11-15T07:54:38;100776.41;;;9.25;100.00
60015;BME280;45867;52.480;6.056;2022-11-15T07:57:05;100779.31;;;9.29;100.00
60015;BME280;45867;52.480;6.056;2022-11-15T07:59:32;100776.16;;;9.32;100.00
60015;BME280;45867;52.480;6.056;2022-11-15T08:01:58;100769.81;;;9.33;100.00
60015;BME280;45867;52.480;6.056;2022-11-15T08:04:23;100779.34;;;9.34;100.00
60015;BME280;45867;52.480;6.056;2022-11-15T08:06:48;100771.63;;;9.27;100.00
60015;BME280;45867;52.480;6.056;2022-11-15T08:09:14;100775.09;;;9.33;100.00
60015;BME280;45867;52.480;6.056;2022-11-15T08:11:39;100763.97;;;9.31;100.00
60015;BME280;45867;52.480;6.056;2022-11-15T08:14:05;100766.09;;;9.34;100.00
60015;BME280;45867;52.480;6.056;2022-11-15T08:16:30;100779.91;;;9.51;100.00
60015;BME280;45867;52.480;6.056;2022-11-15T08:18:56;100789.47;;;9.52;100.00
60015;BME280;45867;52.480;6.056;2022-11-15T08:21:22;100783.63;;;9.55;100.00
60015;BME280;45867;52.480;6.056;2022-11-15T08:23:47;100784.19;;;9.63;100.00
60015;BME280;45867;52.480;6.056;2022-11-15T08:26:13;100781.53;;;9.68;100.00
60015;BME280;45867;52.480;6.056;2022-11-15T08:28:38;100780.75;;;9.62;100.00
60015;BME280;45867;52.480;6.056;2022-11-15T08:31:04;100778.66;;;9.69;100.00
60015;BME280;45867;52.480;6.056;2022-11-15T08:33:30;100778.91;;;9.68;100.00
60015;BME280;45867;52.480;6.056;2022-11-15T08:35:57;100782.91;;;9.75;100.00
60015;BME280;45867;52.480;6.056;2022-11-15T08:38:22;100772.06;;;9.77;100.00
60015;BME280;45867;52.480;6.056;2022-11-15T08:40:48;100769.66;;;9.75;100.00
60015;BME280;45867;52.480;6.056;2022-11-15T08:43:13;100752.22;;;9.74;100.00
60015;BME280;45867;52.480;6.056;2022-11-15T08:45:38;100751.69;;;9.77;100.00
60015;BME280;45867;52.480;6.056;2022-11-15T08:48:04;100757.25;;;9.86;100.00
60015;BME280;45867;52.480;6.056;2022-11-15T08:50:30;100744.81;;;9.87;100.00
60015;BME280;45867;52.480;6.056;2022-11-15T08:52:55;100753.00;;;9.95;100.00
60015;BME280;45867;52.480;6.056;2022-11-15T08:55:21;100749.03;;;9.98;100.00
60015;BME280;45867;52.480;6.056;2022-11-15T08:57:46;100750.94;;;10.13;100.00
60015;BME280;45867;52.480;6.056;2022-11-15T09:00:12;100759.41;;;10.15;100.00
60015;BME280;45867;52.480;6.056;2022-11-15T09:02:39;100755.69;;;10.16;100.00
60015;BME280;45867;52.480;6.056;2022-11-15T09:05:05;100749.06;;;10.13;100.00
60015;BME280;45867;52.480;6.056;2022-11-15T09:07:31;100739.50;;;10.17;100.00
60015;BME280;45867;52.480;6.056;2022-11-15T09:09:57;100736.91;;;10.28;100.00
60015;BME280;45867;52.480;6.056;2022-11-15T09:12:23;100735.03;;;10.28;100.00
60015;BME280;45867;52.480;6.056;2022-11-15T09:14:50;100741.91;;;10.19;100.00
60015;BME280;45867;52.480;6.056;2022-11-15T09:17:15;100730.53;;;10.18;100.00
60015;BME280;45867;52.480;6.056;2022-11-15T09:19:42;100728.13;;;10.17;100.00
60015;BME280;45867;52.480;6.056;2022-11-15T09:22:08;100732.66;;;10.21;100.00
60015;BME280;45867;52.480;6.056;2022-11-15T09:24:38;100728.41;;;10.20;100.00
60015;BME280;45867;52.480;6.056;2022-11-15T09:27:04;100727.88;;;10.18;100.00
60015;BME280;45867;52.480;6.056;2022-11-15T09:29:29;100733.19;;;10.18;100.00
60015;BME280;45867;52.480;6.056;2022-11-15T09:31:58;100739.25;;;10.19;100.00
60015;BME280;45867;52.480;6.056;2022-11-15T09:34:23;100719.94;;;10.13;100.00
60015;BME280;45867;52.480;6.056;2022-11-15T09:36:48;100722.59;;;10.23;100.00
60015;BME280;45867;52.480;6.056;2022-11-15T09:39:14;100718.34;;;10.22;100.00
60015;BME280;45867;52.480;6.056;2022-11-15T09:42:12;100723.09;;;10.26;100.00
60015;BME280;45867;52.480;6.056;2022-11-15T09:45:13;100713.84;;;10.43;100.00
60015;BME280;45867;52.480;6.056;2022-11-15T09:50:50;100718.06;;;10.44;100.00
60015;BME280;45867;52.480;6.056;2022-11-15T09:53:27;100719.69;;;10.51;100.00
60015;BME280;45867;52.480;6.056;2022-11-15T09:56:00;100716.22;;;10.50;100.00
60015;BME280;45867;52.480;6.056;2022-11-15T10:01:18;100709.06;;;10.51;100.00
60015;BME280;45867;52.480;6.056;2022-11-15T10:03:45;100698.72;;;10.54;100.00
60015;BME280;45867;52.480;6.056;2022-11-15T10:06:23;100708.00;;;10.57;100.00
60015;BME280;45867;52.480;6.056;2022-11-15T10:09:30;100703.16;;;10.79;100.00
60015;BME280;45867;52.480;6.056;2022-11-15T10:12:01;100703.38;;;10.98;100.00
60015;BME280;45867;52.480;6.056;2022-11-15T10:14:29;100697.69;;;11.20;100.00
60015;BME280;45867;52.480;6.056;2022-11-15T10:20:02;100689.22;;;12.02;100.00
60015;BME280;45867;52.480;6.056;2022-11-15T10:22:41;100683.06;;;12.36;100.00
60015;BME280;45867;52.480;6.056;2022-11-15T10:25:23;100680.91;;;12.38;100.00
60015;BME280;45867;52.480;6.056;2022-11-15T10:27:56;100688.66;;;12.34;100.00
60015;BME280;45867;52.480;6.056;2022-11-15T10:30:23;100676.47;;;12.04;100.00
60015;BME280;45867;52.480;6.056;2022-11-15T10:32:56;100688.81;;;11.85;100.00
60015;BME280;45867;52.480;6.056;2022-11-15T10:35:27;100687.38;;;11.97;100.00
60015;BME280;45867;52.480;6.056;2022-11-15T10:38:08;100680.47;;;12.02;100.00
60015;BME280;45867;52.480;6.056;2022-11-15T10:40:34;100677.28;;;11.99;100.00
60015;BME280;45867;52.480;6.056;2022-11-15T10:43:18;100669.50;;;12.08;100.00
60015;BME280;45867;52.480;6.056;2022-11-15T10:45:47;100670.44;;;11.93;100.00
60015;BME280;45867;52.480;6.056;2022-11-15T10:50:46;100656.94;;;11.85;100.00
60015;BME280;45867;52.480;6.056;2022-11-15T10:53:29;100673.66;;;11.85;100.00
60015;BME280;45867;52.480;6.056;2022-11-15T10:55:59;100665.97;;;11.84;100.00
60015;BME280;45867;52.480;6.056;2022-11-15T10:58:33;100677.06;;;11.96;100.00
60015;BME280;45867;52.480;6.056;2022-11-15T11:01:10;100662.38;;;11.69;100.00
60015;BME280;45867;52.480;6.056;2022-11-15T11:03:38;100664.75;;;11.71;100.00
60015;BME280;45867;52.480;6.056;2022-11-15T11:08:36;100658.50;;;11.91;100.00
60015;BME280;45867;52.480;6.056;2022-11-15T11:11:03;100651.94;;;12.12;100.00
60015;BME280;45867;52.480;6.056;2022-11-15T11:13:30;100638.75;;;12.02;100.00
60015;BME280;45867;52.480;6.056;2022-11-15T11:18:52;100638.09;;;11.81;100.00
60015;BME280;45867;52.480;6.056;2022-11-15T11:27:07;100612.88;;;12.13;100.00
60015;BME280;45867;52.480;6.056;2022-11-15T11:33:09;100610.19;;;12.42;100.00
60015;BME280;45867;52.480;6.056;2022-11-15T11:35:50;100618.59;;;12.49;100.00
60015;BME280;45867;52.480;6.056;2022-11-15T11:38:51;100616.25;;;12.91;100.00
60015;BME280;45867;52.480;6.056;2022-11-15T11:41:53;100618.81;;;12.77;100.00
60015;BME280;45867;52.480;6.056;2022-11-15T11:47:30;100621.53;;;12.72;100.00
60015;BME280;45867;52.480;6.056;2022-11-15T11:50:27;100608.28;;;12.48;100.00
60015;BME280;45867;52.480;6.056;2022-11-15T11:53:12;100615.53;;;12.85;100.00
60015;BME280;45867;52.480;6.056;2022-11-15T11:55:43;100599.78;;;13.07;100.00
60015;BME280;45867;52.480;6.056;2022-11-15T11:58:38;100609.81;;;13.35;100.00
60015;BME280;45867;52.480;6.056;2022-11-15T12:01:31;100602.53;;;13.73;100.00
60015;BME280;45867;52.480;6.056;2022-11-15T12:04:27;100608.47;;;15.75;100.00
60015;BME280;45867;52.480;6.056;2022-11-15T12:12:41;100605.09;;;16.24;100.00
60015;BME280;45867;52.480;6.056;2022-11-15T12:15:50;100581.94;;;13.79;100.00
60015;BME280;45867;52.480;6.056;2022-11-15T12:18:19;100587.50;;;13.30;100.00
60015;BME280;45867;52.480;6.056;2022-11-15T12:20:56;100585.13;;;13.29;100.00
60015;BME280;45867;52.480;6.056;2022-11-15T12:23:32;100585.91;;;14.36;100.00
60015;BME280;45867;52.480;6.056;2022-11-15T12:26:04;100578.56;;;15.20;100.00
60015;BME280;45867;52.480;6.056;2022-11-15T12:28:35;100580.00;;;16.51;100.00
60015;BME280;45867;52.480;6.056;2022-11-15T12:31:15;100577.88;;;16.88;100.00
60015;BME280;45867;52.480;6.056;2022-11-15T12:33:47;100575.75;;;16.01;100.00
60015;BME280;45867;52.480;6.056;2022-11-15T12:38:56;100561.56;;;16.32;100.00
60015;BME280;45867;52.480;6.056;2022-11-15T12:41:25;100557.16;;;16.45;100.00
60015;BME280;45867;52.480;6.056;2022-11-15T12:43:51;100557.38;;;16.08;100.00
60015;BME280;45867;52.480;6.056;2022-11-15T12:48:52;100539.94;;;17.03;100.00
60015;BME280;45867;52.480;6.056;2022-11-15T12:52:03;100531.47;;;17.57;100.00
60015;BME280;45867;52.480;6.056;2022-11-15T13:00:01;100528.78;;;16.17;100.00
60015;BME280;45867;52.480;6.056;2022-11-15T13:02:38;100518.91;;;15.78;100.00
60015;BME280;45867;52.480;6.056;2022-11-15T13:18:19;100511.91;;;15.91;100.00
60015;BME280;45867;52.480;6.056;2022-11-15T13:20:45;100501.28;;;16.17;100.00
60015;BME280;45867;52.480;6.056;2022-11-15T13:23:15;100488.66;;;16.09;100.00
60015;BME280;45867;52.480;6.056;2022-11-15T13:26:13;100493.03;;;15.02;100.00
60015;BME280;45867;52.480;6.056;2022-11-15T13:28:45;100486.56;;;14.58;100.00
60015;BME280;45867;52.480;6.056;2022-11-15T13:34:03;100479.91;;;14.19;100.00
60015;BME280;45867;52.480;6.056;2022-11-15T13:36:41;100477.56;;;13.90;100.00
60015;BME280;45867;52.480;6.056;2022-11-15T13:39:25;100466.78;;;14.23;100.00
60015;BME280;45867;52.480;6.056;2022-11-15T13:41:51;100470.13;;;14.29;100.00
60015;BME280;45867;52.480;6.056;2022-11-15T13:44:35;100465.00;;;14.32;100.00
60015;BME280;45867;52.480;6.056;2022-11-15T13:47:21;100465.53;;;14.43;100.00
60015;BME280;45867;52.480;6.056;2022-11-15T13:49:46;100458.69;;;15.09;100.00
60015;BME280;45867;52.480;6.056;2022-11-15T13:52:14;100459.97;;;15.43;100.00
60015;BME280;45867;52.480;6.056;2022-11-15T13:54:55;100462.53;;;14.72;100.00
60015;BME280;45867;52.480;6.056;2022-11-15T13:57:40;100443.19;;;14.89;100.00
60015;BME280;45867;52.480;6.056;2022-11-15T14:02:50;100430.63;;;14.31;100.00
60015;BME280;45867;52.480;6.056;2022-11-15T14:05:23;100437.69;;;13.99;100.00
60015;BME280;45867;52.480;6.056;2022-11-15T14:08:05;100439.50;;;13.48;100.00
60015;BME280;45867;52.480;6.056;2022-11-15T14:10:38;100435.13;;;13.06;100.00
60015;BME280;45867;52.480;6.056;2022-11-15T14:13:11;100435.44;;;13.04;100.00
60015;BME280;45867;52.480;6.056;2022-11-15T14:15:51;100424.06;;;12.85;100.00
60015;BME280;45867;52.480;6.056;2022-11-15T14:18:40;100434.81;;;12.61;100.00
60015;BME280;45867;52.480;6.056;2022-11-15T14:21:07;100420.63;;;12.47;100.00
60015;BME280;45867;52.480;6.056;2022-11-15T14:23:33;100415.78;;;12.35;100.00
60015;BME280;45867;52.480;6.056;2022-11-15T14:26:02;100411.59;;;12.10;100.00
60015;BME280;45867;52.480;6.056;2022-11-15T14:28:34;100397.81;;;11.84;100.00
60015;BME280;45867;52.480;6.056;2022-11-15T14:31:11;100398.53;;;11.70;100.00
60015;BME280;45867;52.480;6.056;2022-11-15T14:33:38;100386.00;;;11.52;100.00
60015;BME280;45867;52.480;6.056;2022-11-15T14:36:18;100405.97;;;11.44;100.00
60015;BME280;45867;52.480;6.056;2022-11-15T14:38:45;100396.25;;;11.34;100.00